< Typhoon 199808 1998 Season Typhoon 199810 >
Typhoon 199809 (YANNI)
General InformationTrack Information on Google MapsDetailed Wind InformationList of All Images || NewsDisaster Info.ResourceGoogle EarthGE AnimationAtom FeedGeoJSON
Detalied Best Track (Time Zone = UTC)
Year Month Day Hour Lat. Long. Pressure (hPa) Wind (kt) Class Image Chart
1998 9 26 12 20.4 126.1 1002 0 2 Image Chart
1998 9 26 18 20.4 126.0 1002 0 2 Image Chart
1998 9 27 00 20.8 125.1 1002 0 2 Image Chart
1998 9 27 06 20.6 122.9 1002 0 2 Image Chart
1998 9 27 12 21.6 123.4 1002 0 2 Image Chart
1998 9 27 18 22.5 122.2 1000 0 2 Image Chart
1998 9 28 00 23.0 122.2 998 35 3 Image Chart
1998 9 28 03 23.4 122.2 996 35 3 Image Chart
1998 9 28 06 23.8 122.1 992 40 3 Image Chart
1998 9 28 09 24.1 122.3 990 40 3 Image Chart
1998 9 28 12 24.4 122.4 985 45 3 Image Chart
1998 9 28 15 24.8 122.6 985 45 3 Image Chart
1998 9 28 18 25.2 122.8 980 50 4 Image Chart
1998 9 28 21 25.5 123.0 980 50 4 Image Chart
1998 9 29 00 25.9 123.3 975 50 4 Image Chart
1998 9 29 03 26.5 123.9 975 55 4 Image Chart
1998 9 29 06 27.1 124.3 970 60 4 Image Chart
1998 9 29 09 27.9 124.9 970 60 4 Image Chart
1998 9 29 12 28.7 125.6 965 65 5 Image Chart
1998 9 29 18 30.9 126.7 970 60 4 Image Chart
1998 9 30 00 33.0 127.2 975 55 4 Image Chart
1998 9 30 03 34.2 127.2 975 55 4 Image Chart
1998 9 30 06 34.6 127.0 980 50 4 Image Chart
1998 9 30 09 34.6 127.1 990 0 6 Image Chart
1998 9 30 12 34.6 127.2 994 0 6 Image Chart
1998 9 30 18 34.6 127.4 996 0 6 Image Chart
1998 10 1 00 33.9 127.8 998 0 6 Image Chart
1998 10 1 06 33.4 128.4 1000 0 6 Image Chart
Japan Meteorological Agency Best Track Data | Correction Date : 1999-01-11
< Typhoon 199808 1998 Season Typhoon 199810 >

Help